PWSweather.com
Personal Weather Stations
Station Observations
MIKESPOST
YorkGB

YorkGB

Lat: 53.9577018, Lon: -1.0822855

Elevation: 0

Station Type: WH1081

High Low Average
Temperature 47.3°F8.5°F 32.9°F0.5°F 42.4°F5.8°F
Dew Point 47.0°F8.3°F 32.7°F0.4°F 42.1°F5.6°F
Winds 1.1 mph S1.8 mph S Calm Calm 0.1 mph 0.2 mph
Wind Gusts 3.9 mph6.3 mph -- 0.3 mph0.5 mph
Humidity 99% 99% 99%
Pressure 29.94 in1013.90 in 29.77 in1008.10 in -
Precipitation 0.12 in3.00 in - -
Hour Temp Dew Point Humidity Winds Wind Gusts Pressure Precip Precip Rate Daily Precip Total
12:00 AM 45.0°F7.2°C 44.7°F7.1°C 99% 0.4 mph S0.6 kmh S 1.7 mph2.7 kmh 29.77 in1008.1 mb 0.00 in0.0 mm 0.00 in/hr0.0 mm/hr 0.00 in0.0 mm
12:20 AM 44.2°F6.8°C 44.0°F6.7°C 99% Calm Calm -- 29.78 in1008.5 mb 0.00 in0.0 mm 0.00 in/hr0.0 mm/hr 0.00 in0.0 mm
12:40 AM 43.7°F6.5°C 43.4°F6.3°C 99% Calm Calm -- 29.78 in1008.5 mb 0.00 in0.0 mm 0.00 in/hr0.0 mm/hr 0.00 in0.0 mm
01:00 AM 43.7°F6.5°C 43.4°F6.3°C 99% Calm Calm -- 29.78 in1008.5 mb 0.00 in0.0 mm 0.00 in/hr0.0 mm/hr 0.00 in0.0 mm
01:20 AM 43.9°F6.6°C 43.6°F6.4°C 99% 0.1 mph S0.2 kmh S 1.7 mph2.7 kmh 29.78 in1008.5 mb 0.00 in0.0 mm 0.00 in/hr0.0 mm/hr 0.00 in0.0 mm
01:40 AM 43.9°F6.6°C 43.6°F6.4°C 99% Calm Calm -- 29.79 in1008.8 mb 0.00 in0.0 mm 0.00 in/hr0.0 mm/hr 0.00 in0.0 mm
02:00 AM 44.2°F6.8°C 44.0°F6.7°C 99% Calm Calm -- 29.78 in1008.5 mb 0.00 in0.0 mm 0.00 in/hr0.0 mm/hr 0.00 in0.0 mm
02:40 AM 44.2°F6.8°C 44.0°F6.7°C 99% Calm Calm -- 29.78 in1008.5 mb 0.00 in0.0 mm 0.00 in/hr0.0 mm/hr 0.00 in0.0 mm
03:00 AM 44.6°F7.0°C 44.3°F6.8°C 99% Calm Calm -- 29.77 in1008.1 mb 0.00 in0.0 mm 0.00 in/hr0.0 mm/hr 0.00 in0.0 mm
03:20 AM 45.1°F7.3°C 44.9°F7.2°C 99% 0.3 mph WNW0.5 kmh WNW 1.7 mph2.7 kmh 29.78 in1008.5 mb 0.00 in0.0 mm 0.00 in/hr0.0 mm/hr 0.00 in0.0 mm
03:40 AM 45.7°F7.6°C 45.4°F7.4°C 99% 0.3 mph N0.5 kmh N 1.7 mph2.7 kmh 29.78 in1008.5 mb 0.00 in0.0 mm 0.00 in/hr0.0 mm/hr 0.00 in0.0 mm
04:00 AM 45.9°F7.7°C 45.6°F7.6°C 99% Calm Calm -- 29.79 in1008.8 mb 0.00 in0.0 mm 0.00 in/hr0.0 mm/hr 0.00 in0.0 mm
04:20 AM 45.9°F7.7°C 45.6°F7.6°C 99% Calm Calm -- 29.79 in1008.8 mb 0.00 in0.0 mm 0.00 in/hr0.0 mm/hr 0.00 in0.0 mm
04:40 AM 46.0°F7.8°C 45.8°F7.7°C 99% Calm Calm -- 29.79 in1008.8 mb 0.00 in0.0 mm 0.00 in/hr0.0 mm/hr 0.00 in0.0 mm
05:00 AM 45.9°F7.7°C 45.6°F7.6°C 99% Calm Calm -- 29.79 in1008.8 mb 0.00 in0.0 mm 0.00 in/hr0.0 mm/hr 0.00 in0.0 mm
05:20 AM 45.9°F7.7°C 45.6°F7.6°C 99% Calm Calm -- 29.79 in1008.8 mb 0.01 in0.3 mm 0.03 in/hr0.8 mm/hr 0.01 in0.3 mm
05:40 AM 45.7°F7.6°C 45.4°F7.4°C 99% Calm Calm -- 29.80 in1009.1 mb 0.01 in0.3 mm 0.00 in/hr0.0 mm/hr 0.01 in0.3 mm
06:00 AM 45.7°F7.6°C 45.4°F7.4°C 99% 1.1 mph S1.8 kmh S 3.9 mph6.3 kmh 29.80 in1009.1 mb 0.02 in0.5 mm 0.02 in/hr0.5 mm/hr 0.02 in0.5 mm
06:20 AM 45.7°F7.6°C 45.4°F7.4°C 99% 1.0 mph SE1.6 kmh SE 3.9 mph6.3 kmh 29.80 in1009.1 mb 0.01 in0.3 mm 0.00 in/hr0.0 mm/hr 0.02 in0.5 mm
06:40 AM 45.3°F7.4°C 45.1°F7.3°C 99% 0.3 mph SW0.5 kmh SW 1.7 mph2.7 kmh 29.81 in1009.5 mb 0.02 in0.5 mm 0.03 in/hr0.8 mm/hr 0.04 in1.0 mm
07:00 AM 44.8°F7.1°C 44.5°F6.9°C 99% Calm Calm -- 29.81 in1009.5 mb 0.01 in0.3 mm 0.00 in/hr0.0 mm/hr 0.04 in1.0 mm
07:20 AM 44.6°F7.0°C 44.3°F6.8°C 99% Calm Calm -- 29.81 in1009.5 mb 0.02 in0.5 mm 0.03 in/hr0.8 mm/hr 0.05 in1.3 mm
07:40 AM 44.4°F6.9°C 44.2°F6.8°C 99% Calm Calm -- 29.82 in1009.8 mb 0.01 in0.3 mm 0.00 in/hr0.0 mm/hr 0.05 in1.3 mm
08:00 AM 44.6°F7.0°C 44.3°F6.8°C 99% Calm Calm -- 29.81 in1009.5 mb 0.01 in0.3 mm 0.00 in/hr0.0 mm/hr 0.05 in1.3 mm
08:20 AM 44.4°F6.9°C 44.2°F6.8°C 99% Calm Calm -- 29.82 in1009.8 mb 0.00 in0.0 mm 0.00 in/hr0.0 mm/hr 0.05 in1.3 mm
08:40 AM 44.6°F7.0°C 44.3°F6.8°C 99% Calm Calm -- 29.82 in1009.8 mb 0.00 in0.0 mm 0.00 in/hr0.0 mm/hr 0.05 in1.3 mm
09:00 AM 44.8°F7.1°C 44.5°F6.9°C 99% Calm Calm -- 29.82 in1009.8 mb 0.00 in0.0 mm 0.00 in/hr0.0 mm/hr 0.05 in1.3 mm
09:20 AM 44.8°F7.1°C 44.5°F6.9°C 99% Calm Calm -- 29.83 in1010.2 mb 0.00 in0.0 mm 0.00 in/hr0.0 mm/hr 0.05 in1.3 mm
09:40 AM 45.1°F7.3°C 44.9°F7.2°C 99% Calm Calm -- 29.82 in1009.8 mb 0.00 in0.0 mm 0.00 in/hr0.0 mm/hr 0.05 in1.3 mm
10:00 AM 45.3°F7.4°C 45.1°F7.3°C 99% Calm Calm -- 29.83 in1010.2 mb 0.00 in0.0 mm 0.00 in/hr0.0 mm/hr 0.05 in1.3 mm
10:20 AM 45.7°F7.6°C 45.4°F7.4°C 99% Calm Calm -- 29.83 in1010.2 mb 0.00 in0.0 mm 0.00 in/hr0.0 mm/hr 0.05 in1.3 mm
10:40 AM 46.2°F7.9°C 46.0°F7.8°C 99% Calm Calm -- 29.84 in1010.5 mb 0.00 in0.0 mm 0.00 in/hr0.0 mm/hr 0.05 in1.3 mm
11:00 AM 46.6°F8.1°C 46.3°F7.9°C 99% Calm Calm -- 29.83 in1010.2 mb 0.00 in0.0 mm 0.00 in/hr0.0 mm/hr 0.05 in1.3 mm
11:20 AM 46.6°F8.1°C 46.3°F7.9°C 99% Calm Calm -- 29.84 in1010.5 mb 0.00 in0.0 mm 0.00 in/hr0.0 mm/hr 0.05 in1.3 mm
11:40 AM 46.2°F7.9°C 46.0°F7.8°C 99% Calm Calm -- 29.82 in1009.8 mb 0.00 in0.0 mm 0.00 in/hr0.0 mm/hr 0.05 in1.3 mm
12:00 PM 46.4°F8.0°C 46.1°F7.8°C 99% Calm Calm -- 29.82 in1009.8 mb 0.00 in0.0 mm 0.00 in/hr0.0 mm/hr 0.05 in1.3 mm
12:20 PM 46.9°F8.3°C 46.7°F8.2°C 99% Calm Calm -- 29.82 in1009.8 mb 0.00 in0.0 mm 0.00 in/hr0.0 mm/hr 0.05 in1.3 mm
12:40 PM 47.1°F8.4°C 46.9°F8.3°C 99% Calm Calm -- 29.82 in1009.8 mb 0.00 in0.0 mm 0.00 in/hr0.0 mm/hr 0.05 in1.3 mm
01:00 PM 47.3°F8.5°C 47.0°F8.3°C 99% Calm Calm -- 29.81 in1009.5 mb 0.00 in0.0 mm 0.00 in/hr0.0 mm/hr 0.05 in1.3 mm
01:20 PM 47.3°F8.5°C 47.0°F8.3°C 99% Calm Calm -- 29.82 in1009.8 mb 0.00 in0.0 mm 0.00 in/hr0.0 mm/hr 0.05 in1.3 mm
01:40 PM 47.1°F8.4°C 46.9°F8.3°C 99% 0.1 mph W0.2 kmh W 1.7 mph2.7 kmh 29.82 in1009.8 mb 0.00 in0.0 mm 0.00 in/hr0.0 mm/hr 0.05 in1.3 mm
02:00 PM 46.9°F8.3°C 46.7°F8.2°C 99% Calm Calm -- 29.82 in1009.8 mb 0.00 in0.0 mm 0.00 in/hr0.0 mm/hr 0.05 in1.3 mm
02:20 PM 46.8°F8.2°C 46.5°F8.1°C 99% 0.1 mph W0.2 kmh W 1.7 mph2.7 kmh 29.83 in1010.2 mb 0.00 in0.0 mm 0.00 in/hr0.0 mm/hr 0.05 in1.3 mm
02:40 PM 46.4°F8.0°C 46.1°F7.8°C 99% Calm Calm -- 29.82 in1009.8 mb 0.00 in0.0 mm 0.00 in/hr0.0 mm/hr 0.05 in1.3 mm
03:00 PM 46.4°F8.0°C 46.1°F7.8°C 99% Calm Calm -- 29.82 in1009.8 mb 0.00 in0.0 mm 0.00 in/hr0.0 mm/hr 0.05 in1.3 mm
03:20 PM 45.1°F7.3°C 44.9°F7.2°C 99% Calm Calm -- 29.84 in1010.5 mb 0.00 in0.0 mm 0.00 in/hr0.0 mm/hr 0.05 in1.3 mm
03:40 PM 43.5°F6.4°C 43.3°F6.3°C 99% Calm Calm -- 29.84 in1010.5 mb 0.00 in0.0 mm 0.00 in/hr0.0 mm/hr 0.05 in1.3 mm
04:00 PM 42.1°F5.6°C 41.8°F5.4°C 99% Calm Calm -- 29.85 in1010.8 mb 0.00 in0.0 mm 0.00 in/hr0.0 mm/hr 0.05 in1.3 mm
04:20 PM 41.0°F5.0°C 40.7°F4.8°C 99% Calm Calm -- 29.85 in1010.8 mb 0.00 in0.0 mm 0.00 in/hr0.0 mm/hr 0.05 in1.3 mm
04:40 PM 40.1°F4.5°C 39.8°F4.3°C 99% Calm Calm -- 29.85 in1010.8 mb 0.00 in0.0 mm 0.00 in/hr0.0 mm/hr 0.05 in1.3 mm
05:00 PM 39.4°F4.1°C 39.1°F3.9°C 99% Calm Calm -- 29.85 in1010.8 mb 0.00 in0.0 mm 0.00 in/hr0.0 mm/hr 0.05 in1.3 mm
05:20 PM 38.7°F3.7°C 38.4°F3.6°C 99% Calm Calm -- 29.86 in1011.2 mb 0.00 in0.0 mm 0.00 in/hr0.0 mm/hr 0.05 in1.3 mm
05:40 PM 38.5°F3.6°C 38.2°F3.4°C 99% Calm Calm -- 29.86 in1011.2 mb 0.00 in0.0 mm 0.00 in/hr0.0 mm/hr 0.05 in1.3 mm
06:00 PM 37.8°F3.2°C 37.5°F3.1°C 99% Calm Calm -- 29.87 in1011.5 mb 0.00 in0.0 mm 0.00 in/hr0.0 mm/hr 0.05 in1.3 mm
06:20 PM 37.4°F3.0°C 37.1°F2.8°C 99% Calm Calm -- 29.87 in1011.5 mb 0.00 in0.0 mm 0.00 in/hr0.0 mm/hr 0.05 in1.3 mm
06:40 PM 37.0°F2.8°C 36.8°F2.7°C 99% Calm Calm -- 29.88 in1011.9 mb 0.00 in0.0 mm 0.00 in/hr0.0 mm/hr 0.05 in1.3 mm
07:00 PM 36.9°F2.7°C 36.6°F2.6°C 99% Calm Calm -- 29.88 in1011.9 mb 0.00 in0.0 mm 0.00 in/hr0.0 mm/hr 0.05 in1.3 mm
07:20 PM 36.3°F2.4°C 36.1°F2.3°C 99% 0.1 mph W0.2 kmh W 1.7 mph2.7 kmh 29.88 in1011.9 mb 0.00 in0.0 mm 0.00 in/hr0.0 mm/hr 0.05 in1.3 mm
07:40 PM 36.0°F2.2°C 35.7°F2.1°C 99% Calm Calm -- 29.88 in1011.9 mb 0.00 in0.0 mm 0.00 in/hr0.0 mm/hr 0.05 in1.3 mm
08:00 PM 35.4°F1.9°C 35.2°F1.8°C 99% Calm Calm -- 29.88 in1011.9 mb 0.00 in0.0 mm 0.00 in/hr0.0 mm/hr 0.05 in1.3 mm
08:20 PM 35.2°F1.8°C 35.0°F1.7°C 99% 0.1 mph W0.2 kmh W 1.7 mph2.7 kmh 29.89 in1012.2 mb 0.00 in0.0 mm 0.00 in/hr0.0 mm/hr 0.05 in1.3 mm
08:40 PM 35.1°F1.7°C 34.8°F1.6°C 99% Calm Calm -- 29.89 in1012.2 mb 0.00 in0.0 mm 0.00 in/hr0.0 mm/hr 0.05 in1.3 mm
09:00 PM 34.7°F1.5°C 34.5°F1.4°C 99% 0.2 mph NW0.3 kmh NW 1.7 mph2.7 kmh 29.90 in1012.5 mb 0.00 in0.0 mm 0.00 in/hr0.0 mm/hr 0.05 in1.3 mm
09:20 PM 34.5°F1.4°C 34.3°F1.3°C 99% Calm Calm -- 29.90 in1012.5 mb 0.00 in0.0 mm 0.00 in/hr0.0 mm/hr 0.05 in1.3 mm
09:40 PM 34.2°F1.2°C 33.9°F1.1°C 99% Calm Calm -- 29.91 in1012.9 mb 0.00 in0.0 mm 0.00 in/hr0.0 mm/hr 0.05 in1.3 mm
10:00 PM 34.0°F1.1°C 33.7°F0.9°C 99% Calm Calm -- 29.91 in1012.9 mb 0.00 in0.0 mm 0.00 in/hr0.0 mm/hr 0.05 in1.3 mm
10:20 PM 33.6°F0.9°C 33.4°F0.8°C 99% Calm Calm -- 29.91 in1012.9 mb 0.00 in0.0 mm 0.00 in/hr0.0 mm/hr 0.05 in1.3 mm
10:40 PM 33.6°F0.9°C 33.4°F0.8°C 99% Calm Calm -- 29.92 in1013.2 mb 0.00 in0.0 mm 0.00 in/hr0.0 mm/hr 0.05 in1.3 mm
11:00 PM 33.6°F0.9°C 33.4°F0.8°C 99% Calm Calm -- 29.92 in1013.2 mb 0.00 in0.0 mm 0.00 in/hr0.0 mm/hr 0.05 in1.3 mm
11:20 PM 33.3°F0.7°C 33.0°F0.6°C 99% Calm Calm -- 29.93 in1013.5 mb 0.00 in0.0 mm 0.00 in/hr0.0 mm/hr 0.05 in1.3 mm
11:40 PM 32.9°F0.5°C 32.7°F0.4°C 99% Calm Calm -- 29.94 in1013.9 mb 0.00 in0.0 mm 0.00 in/hr0.0 mm/hr 0.05 in1.3 mm